sensor_id;sensor_type;location;lat;lon;timestamp;temperature;humidity
75155;HTU21D;63735;44.730;37.818;2023-06-01T00:02:22;18.41;88.86
75155;HTU21D;63735;44.730;37.818;2023-06-01T00:04:49;18.29;89.17
75155;HTU21D;63735;44.730;37.818;2023-06-01T00:07:16;18.22;89.27
75155;HTU21D;63735;44.730;37.818;2023-06-01T00:09:42;18.12;89.50
75155;HTU21D;63735;44.730;37.818;2023-06-01T00:12:08;18.02;89.71
75155;HTU21D;63735;44.730;37.818;2023-06-01T00:14:34;17.89;89.76
75155;HTU21D;63735;44.730;37.818;2023-06-01T00:17:01;17.76;89.95
75155;HTU21D;63735;44.730;37.818;2023-06-01T00:19:28;17.70;90.05
75155;HTU21D;63735;44.730;37.818;2023-06-01T00:21:55;17.72;90.11
75155;HTU21D;63735;44.730;37.818;2023-06-01T00:24:21;17.74;90.08
75155;HTU21D;63735;44.730;37.818;2023-06-01T00:26:48;17.74;90.02
75155;HTU21D;63735;44.730;37.818;2023-06-01T00:29:14;17.75;89.99
75155;HTU21D;63735;44.730;37.818;2023-06-01T00:31:40;17.75;89.99
75155;HTU21D;63735;44.730;37.818;2023-06-01T00:34:06;17.78;89.98
75155;HTU21D;63735;44.730;37.818;2023-06-01T00:36:33;17.77;89.95
75155;HTU21D;63735;44.730;37.818;2023-06-01T00:38:59;17.78;89.99
75155;HTU21D;63735;44.730;37.818;2023-06-01T00:41:31;17.79;89.99
75155;HTU21D;63735;44.730;37.818;2023-06-01T00:43:57;17.79;90.04
75155;HTU21D;63735;44.730;37.818;2023-06-01T00:46:25;17.80;90.07
75155;HTU21D;63735;44.730;37.818;2023-06-01T00:48:54;17.81;90.07
75155;HTU21D;63735;44.730;37.818;2023-06-01T00:51:20;17.80;90.10
75155;HTU21D;63735;44.730;37.818;2023-06-01T00:53:46;17.80;90.16
75155;HTU21D;63735;44.730;37.818;2023-06-01T00:56:12;17.79;90.15
75155;HTU21D;63735;44.730;37.818;2023-06-01T00:58:39;17.77;90.12
75155;HTU21D;63735;44.730;37.818;2023-06-01T01:01:05;17.77;90.14
75155;HTU21D;63735;44.730;37.818;2023-06-01T01:03:34;17.75;90.14
75155;HTU21D;63735;44.730;37.818;2023-06-01T01:06:23;17.75;90.15
75155;HTU21D;63735;44.730;37.818;2023-06-01T01:09:14;17.72;90.15
75155;HTU21D;63735;44.730;37.818;2023-06-01T01:11:49;17.74;90.15
75155;HTU21D;63735;44.730;37.818;2023-06-01T01:14:23;17.75;90.14
75155;HTU21D;63735;44.730;37.818;2023-06-01T01:22:25;17.87;89.90
75155;HTU21D;63735;44.730;37.818;2023-06-01T01:30:43;18.00;89.58
75155;HTU21D;63735;44.730;37.818;2023-06-01T01:33:11;18.05;89.58
75155;HTU21D;63735;44.730;37.818;2023-06-01T01:35:38;18.12;89.57
75155;HTU21D;63735;44.730;37.818;2023-06-01T01:38:04;18.17;89.50
75155;HTU21D;63735;44.730;37.818;2023-06-01T01:40:30;18.22;89.50
75155;HTU21D;63735;44.730;37.818;2023-06-01T01:42:56;18.25;89.52
75155;HTU21D;63735;44.730;37.818;2023-06-01T01:45:23;18.21;89.54
75155;HTU21D;63735;44.730;37.818;2023-06-01T01:48:20;18.12;89.91
75155;HTU21D;63735;44.730;37.818;2023-06-01T01:51:10;18.00;90.36
75155;HTU21D;63735;44.730;37.818;2023-06-01T01:53:38;17.92;90.66
75155;HTU21D;63735;44.730;37.818;2023-06-01T01:56:07;17.83;91.01
75155;HTU21D;63735;44.730;37.818;2023-06-01T01:58:34;17.81;91.18
75155;HTU21D;63735;44.730;37.818;2023-06-01T02:01:01;17.81;91.08
75155;HTU21D;63735;44.730;37.818;2023-06-01T02:03:29;17.77;91.10
75155;HTU21D;63735;44.730;37.818;2023-06-01T02:05:55;17.74;91.10
75155;HTU21D;63735;44.730;37.818;2023-06-01T02:08:21;17.72;91.13
75155;HTU21D;63735;44.730;37.818;2023-06-01T02:10:47;17.74;91.08
75155;HTU21D;63735;44.730;37.818;2023-06-01T02:13:13;17.72;91.10
75155;HTU21D;63735;44.730;37.818;2023-06-01T02:15:39;17.73;91.12
75155;HTU21D;63735;44.730;37.818;2023-06-01T02:18:04;17.74;91.11
75155;HTU21D;63735;44.730;37.818;2023-06-01T02:20:31;17.75;91.15
75155;HTU21D;63735;44.730;37.818;2023-06-01T02:22:58;17.80;91.14
75155;HTU21D;63735;44.730;37.818;2023-06-01T02:25:24;17.83;91.10
75155;HTU21D;63735;44.730;37.818;2023-06-01T02:27:50;17.89;91.04
75155;HTU21D;63735;44.730;37.818;2023-06-01T02:30:16;17.91;91.04
75155;HTU21D;63735;44.730;37.818;2023-06-01T02:32:41;17.94;90.98
75155;HTU21D;63735;44.730;37.818;2023-06-01T02:35:12;17.96;90.96
75155;HTU21D;63735;44.730;37.818;2023-06-01T02:37:38;18.02;90.94
75155;HTU21D;63735;44.730;37.818;2023-06-01T02:40:05;18.08;90.86
75155;HTU21D;63735;44.730;37.818;2023-06-01T02:42:32;18.15;90.75
75155;HTU21D;63735;44.730;37.818;2023-06-01T02:44:58;18.21;90.66
75155;HTU21D;63735;44.730;37.818;2023-06-01T02:47:24;18.28;90.56
75155;HTU21D;63735;44.730;37.818;2023-06-01T02:49:50;18.34;90.47
75155;HTU21D;63735;44.730;37.818;2023-06-01T02:52:16;18.39;90.39
75155;HTU21D;63735;44.730;37.818;2023-06-01T02:54:42;18.43;90.27
75155;HTU21D;63735;44.730;37.818;2023-06-01T02:57:34;18.49;90.16
75155;HTU21D;63735;44.730;37.818;2023-06-01T03:00:03;18.53;90.03
75155;HTU21D;63735;44.730;37.818;2023-06-01T03:02:30;18.55;89.94
75155;HTU21D;63735;44.730;37.818;2023-06-01T03:04:56;18.59;89.86
75155;HTU21D;63735;44.730;37.818;2023-06-01T03:07:22;18.62;89.76
75155;HTU21D;63735;44.730;37.818;2023-06-01T03:09:51;18.65;89.66
75155;HTU21D;63735;44.730;37.818;2023-06-01T03:12:20;18.66;89.59
75155;HTU21D;63735;44.730;37.818;2023-06-01T03:14:46;18.68;89.53
75155;HTU21D;63735;44.730;37.818;2023-06-01T03:17:12;18.70;89.49
75155;HTU21D;63735;44.730;37.818;2023-06-01T03:19:38;18.73;89.45
75155;HTU21D;63735;44.730;37.818;2023-06-01T03:22:14;18.73;89.40
75155;HTU21D;63735;44.730;37.818;2023-06-01T03:24:40;18.67;89.31
75155;HTU21D;63735;44.730;37.818;2023-06-01T03:27:08;18.50;89.62
75155;HTU21D;63735;44.730;37.818;2023-06-01T03:29:37;18.43;89.93
75155;HTU21D;63735;44.730;37.818;2023-06-01T03:32:03;18.43;90.03
75155;HTU21D;63735;44.730;37.818;2023-06-01T03:34:29;18.48;90.02
75155;HTU21D;63735;44.730;37.818;2023-06-01T03:36:55;18.53;89.90
75155;HTU21D;63735;44.730;37.818;2023-06-01T03:39:22;18.55;89.81
75155;HTU21D;63735;44.730;37.818;2023-06-01T03:41:48;18.57;89.74
75155;HTU21D;63735;44.730;37.818;2023-06-01T03:44:14;18.55;89.74
75155;HTU21D;63735;44.730;37.818;2023-06-01T03:46:41;18.55;89.79
75155;HTU21D;63735;44.730;37.818;2023-06-01T03:49:07;18.58;89.79
75155;HTU21D;63735;44.730;37.818;2023-06-01T03:51:34;18.59;89.78
75155;HTU21D;63735;44.730;37.818;2023-06-01T03:54:01;18.61;89.74
75155;HTU21D;63735;44.730;37.818;2023-06-01T03:56:28;18.63;89.76
75155;HTU21D;63735;44.730;37.818;2023-06-01T03:58:58;18.66;89.79
75155;HTU21D;63735;44.730;37.818;2023-06-01T04:01:24;18.71;89.75
75155;HTU21D;63735;44.730;37.818;2023-06-01T04:03:55;18.72;89.70
75155;HTU21D;63735;44.730;37.818;2023-06-01T04:06:23;18.73;89.71
75155;HTU21D;63735;44.730;37.818;2023-06-01T04:08:50;18.76;89.76
75155;HTU21D;63735;44.730;37.818;2023-06-01T04:11:22;18.76;89.71
75155;HTU21D;63735;44.730;37.818;2023-06-01T04:13:48;18.77;89.72
75155;HTU21D;63735;44.730;37.818;2023-06-01T04:16:15;18.77;89.75
75155;HTU21D;63735;44.730;37.818;2023-06-01T04:18:41;18.79;89.76
75155;HTU21D;63735;44.730;37.818;2023-06-01T04:21:14;18.81;89.79
75155;HTU21D;63735;44.730;37.818;2023-06-01T04:23:40;18.82;89.78
75155;HTU21D;63735;44.730;37.818;2023-06-01T04:26:10;18.86;89.76
75155;HTU21D;63735;44.730;37.818;2023-06-01T04:28:36;18.91;89.79
75155;HTU21D;63735;44.730;37.818;2023-06-01T04:31:10;18.91;89.81
75155;HTU21D;63735;44.730;37.818;2023-06-01T04:33:44;18.94;89.84
75155;HTU21D;63735;44.730;37.818;2023-06-01T04:36:12;18.96;89.82
75155;HTU21D;63735;44.730;37.818;2023-06-01T04:38:42;18.98;89.86
75155;HTU21D;63735;44.730;37.818;2023-06-01T04:41:09;19.00;89.83
75155;HTU21D;63735;44.730;37.818;2023-06-01T04:43:38;19.02;89.82
75155;HTU21D;63735;44.730;37.818;2023-06-01T04:46:08;19.05;89.76
75155;HTU21D;63735;44.730;37.818;2023-06-01T04:48:35;19.07;89.84
75155;HTU21D;63735;44.730;37.818;2023-06-01T04:51:02;19.08;89.76
75155;HTU21D;63735;44.730;37.818;2023-06-01T04:53:30;19.08;89.81
75155;HTU21D;63735;44.730;37.818;2023-06-01T04:55:56;19.13;89.80
75155;HTU21D;63735;44.730;37.818;2023-06-01T04:58:22;19.18;89.68
75155;HTU21D;63735;44.730;37.818;2023-06-01T05:00:48;19.20;89.64
75155;HTU21D;63735;44.730;37.818;2023-06-01T05:03:15;19.20;89.64
75155;HTU21D;63735;44.730;37.818;2023-06-01T05:05:41;19.18;89.64
75155;HTU21D;63735;44.730;37.818;2023-06-01T05:08:07;19.18;89.72
75155;HTU21D;63735;44.730;37.818;2023-06-01T05:10:33;19.23;89.73
75155;HTU21D;63735;44.730;37.818;2023-06-01T05:12:59;19.28;89.64
75155;HTU21D;63735;44.730;37.818;2023-06-01T05:15:25;19.36;89.57
75155;HTU21D;63735;44.730;37.818;2023-06-01T05:17:54;19.40;89.48
75155;HTU21D;63735;44.730;37.818;2023-06-01T05:20:20;19.42;89.40
75155;HTU21D;63735;44.730;37.818;2023-06-01T05:22:55;19.50;89.28
75155;HTU21D;63735;44.730;37.818;2023-06-01T05:25:21;19.53;89.13
75155;HTU21D;63735;44.730;37.818;2023-06-01T05:27:48;19.54;89.00
75155;HTU21D;63735;44.730;37.818;2023-06-01T05:30:13;19.57;88.89
75155;HTU21D;63735;44.730;37.818;2023-06-01T05:32:40;19.63;88.84
75155;HTU21D;63735;44.730;37.818;2023-06-01T05:35:13;19.67;88.58
75155;HTU21D;63735;44.730;37.818;2023-06-01T05:37:39;19.72;88.47
75155;HTU21D;63735;44.730;37.818;2023-06-01T05:40:06;19.69;88.31
75155;HTU21D;63735;44.730;37.818;2023-06-01T05:42:34;19.67;88.31
75155;HTU21D;63735;44.730;37.818;2023-06-01T05:45:00;19.65;88.30
75155;HTU21D;63735;44.730;37.818;2023-06-01T05:47:26;19.63;88.28
75155;HTU21D;63735;44.730;37.818;2023-06-01T05:49:53;19.63;88.27
75155;HTU21D;63735;44.730;37.818;2023-06-01T05:52:19;19.69;88.25
75155;HTU21D;63735;44.730;37.818;2023-06-01T05:54:45;19.77;88.13
75155;HTU21D;63735;44.730;37.818;2023-06-01T05:57:11;19.81;87.95
75155;HTU21D;63735;44.730;37.818;2023-06-01T05:59:36;19.82;87.86
75155;HTU21D;63735;44.730;37.818;2023-06-01T06:02:03;19.73;87.89
75155;HTU21D;63735;44.730;37.818;2023-06-01T06:04:29;19.67;88.03
75155;HTU21D;63735;44.730;37.818;2023-06-01T06:06:55;19.63;88.13
75155;HTU21D;63735;44.730;37.818;2023-06-01T06:09:21;19.58;88.16
75155;HTU21D;63735;44.730;37.818;2023-06-01T06:11:47;19.54;88.31
75155;HTU21D;63735;44.730;37.818;2023-06-01T06:14:13;19.59;88.31
75155;HTU21D;63735;44.730;37.818;2023-06-01T06:16:39;19.59;88.12
75155;HTU21D;63735;44.730;37.818;2023-06-01T06:19:05;19.56;88.15
75155;HTU21D;63735;44.730;37.818;2023-06-01T06:21:31;19.57;88.06
75155;HTU21D;63735;44.730;37.818;2023-06-01T06:23:57;19.60;87.93
75155;HTU21D;63735;44.730;37.818;2023-06-01T06:26:27;19.61;87.84
75155;HTU21D;63735;44.730;37.818;2023-06-01T06:28:53;19.72;87.76
75155;HTU21D;63735;44.730;37.818;2023-06-01T06:31:19;19.73;87.57
75155;HTU21D;63735;44.730;37.818;2023-06-01T06:33:45;19.77;87.48
75155;HTU21D;63735;44.730;37.818;2023-06-01T06:36:11;19.81;87.28
75155;HTU21D;63735;44.730;37.818;2023-06-01T06:38:37;19.79;87.16
75155;HTU21D;63735;44.730;37.818;2023-06-01T06:41:03;19.84;87.13
75155;HTU21D;63735;44.730;37.818;2023-06-01T06:43:29;19.82;87.14
75155;HTU21D;63735;44.730;37.818;2023-06-01T06:45:55;19.81;87.32
75155;HTU21D;63735;44.730;37.818;2023-06-01T06:48:21;19.84;87.33
75155;HTU21D;63735;44.730;37.818;2023-06-01T06:50:47;19.90;87.25
75155;HTU21D;63735;44.730;37.818;2023-06-01T06:53:13;19.90;86.88
75155;HTU21D;63735;44.730;37.818;2023-06-01T06:55:38;19.96;86.93
75155;HTU21D;63735;44.730;37.818;2023-06-01T06:58:04;20.05;86.70
75155;HTU21D;63735;44.730;37.818;2023-06-01T07:00:31;20.12;86.61
75155;HTU21D;63735;44.730;37.818;2023-06-01T07:02:57;20.15;86.60
75155;HTU21D;63735;44.730;37.818;2023-06-01T07:05:25;20.15;86.55
75155;HTU21D;63735;44.730;37.818;2023-06-01T07:07:50;20.10;86.48
75155;HTU21D;63735;44.730;37.818;2023-06-01T07:10:16;19.98;86.45
75155;HTU21D;63735;44.730;37.818;2023-06-01T07:12:42;19.87;86.65
75155;HTU21D;63735;44.730;37.818;2023-06-01T07:15:09;19.84;86.91
75155;HTU21D;63735;44.730;37.818;2023-06-01T07:17:35;19.83;86.99
75155;HTU21D;63735;44.730;37.818;2023-06-01T07:20:03;19.81;86.99
75155;HTU21D;63735;44.730;37.818;2023-06-01T07:22:32;19.86;86.99
75155;HTU21D;63735;44.730;37.818;2023-06-01T07:24:59;19.91;86.73
75155;HTU21D;63735;44.730;37.818;2023-06-01T07:27:25;19.98;86.70
75155;HTU21D;63735;44.730;37.818;2023-06-01T07:29:52;20.18;86.43
75155;HTU21D;63735;44.730;37.818;2023-06-01T07:32:24;20.42;86.05
75155;HTU21D;63735;44.730;37.818;2023-06-01T07:34:51;20.57;85.61
75155;HTU21D;63735;44.730;37.818;2023-06-01T07:37:17;20.64;85.31
75155;HTU21D;63735;44.730;37.818;2023-06-01T07:39:48;20.72;85.00
75155;HTU21D;63735;44.730;37.818;2023-06-01T07:42:14;20.72;84.87
75155;HTU21D;63735;44.730;37.818;2023-06-01T07:44:40;20.66;84.53
75155;HTU21D;63735;44.730;37.818;2023-06-01T07:47:06;20.53;84.44
75155;HTU21D;63735;44.730;37.818;2023-06-01T07:49:33;20.41;84.83
75155;HTU21D;63735;44.730;37.818;2023-06-01T07:52:02;20.29;84.87
75155;HTU21D;63735;44.730;37.818;2023-06-01T07:54:28;20.19;84.85
75155;HTU21D;63735;44.730;37.818;2023-06-01T07:56:54;20.09;85.09
75155;HTU21D;63735;44.730;37.818;2023-06-01T07:59:20;20.00;85.16
75155;HTU21D;63735;44.730;37.818;2023-06-01T08:01:53;19.96;85.13
75155;HTU21D;63735;44.730;37.818;2023-06-01T08:04:20;19.94;85.00
75155;HTU21D;63735;44.730;37.818;2023-06-01T08:06:47;19.98;84.95
75155;HTU21D;63735;44.730;37.818;2023-06-01T08:09:13;20.01;84.87
75155;HTU21D;63735;44.730;37.818;2023-06-01T08:11:39;19.99;84.79
75155;HTU21D;63735;44.730;37.818;2023-06-01T08:14:05;20.03;84.90
75155;HTU21D;63735;44.730;37.818;2023-06-01T08:16:35;20.14;84.79
75155;HTU21D;63735;44.730;37.818;2023-06-01T08:19:01;20.14;84.66
75155;HTU21D;63735;44.730;37.818;2023-06-01T08:21:26;20.13;84.79
75155;HTU21D;63735;44.730;37.818;2023-06-01T08:23:53;20.09;84.70
75155;HTU21D;63735;44.730;37.818;2023-06-01T08:26:22;19.99;84.74
75155;HTU21D;63735;44.730;37.818;2023-06-01T08:28:49;19.94;84.93
75155;HTU21D;63735;44.730;37.818;2023-06-01T08:31:20;20.00;84.92
75155;HTU21D;63735;44.730;37.818;2023-06-01T08:33:46;20.03;84.87
75155;HTU21D;63735;44.730;37.818;2023-06-01T08:36:12;20.10;84.64
75155;HTU21D;63735;44.730;37.818;2023-06-01T08:38:39;20.17;84.60
75155;HTU21D;63735;44.730;37.818;2023-06-01T08:41:14;20.26;84.42
75155;HTU21D;63735;44.730;37.818;2023-06-01T08:43:45;20.37;84.07
75155;HTU21D;63735;44.730;37.818;2023-06-01T08:46:14;20.43;83.33
75155;HTU21D;63735;44.730;37.818;2023-06-01T08:48:43;20.34;82.83
75155;HTU21D;63735;44.730;37.818;2023-06-01T08:51:09;20.33;82.83
75155;HTU21D;63735;44.730;37.818;2023-06-01T08:53:38;20.31;82.94
75155;HTU21D;63735;44.730;37.818;2023-06-01T08:56:08;20.20;82.72
75155;HTU21D;63735;44.730;37.818;2023-06-01T08:58:35;20.12;82.91
75155;HTU21D;63735;44.730;37.818;2023-06-01T09:01:02;20.03;83.07
75155;HTU21D;63735;44.730;37.818;2023-06-01T09:03:28;20.09;83.32
75155;HTU21D;63735;44.730;37.818;2023-06-01T09:05:54;20.16;83.10
75155;HTU21D;63735;44.730;37.818;2023-06-01T09:08:21;20.10;82.81
75155;HTU21D;63735;44.730;37.818;2023-06-01T09:10:48;20.02;82.91
75155;HTU21D;63735;44.730;37.818;2023-06-01T09:13:39;19.98;83.07
75155;HTU21D;63735;44.730;37.818;2023-06-01T09:16:06;20.00;83.05
75155;HTU21D;63735;44.730;37.818;2023-06-01T09:18:32;20.03;82.76
75155;HTU21D;63735;44.730;37.818;2023-06-01T09:21:11;20.02;82.68
75155;HTU21D;63735;44.730;37.818;2023-06-01T09:23:38;19.99;82.48
75155;HTU21D;63735;44.730;37.818;2023-06-01T09:26:08;19.95;82.53
75155;HTU21D;63735;44.730;37.818;2023-06-01T09:28:59;19.99;82.60
75155;HTU21D;63735;44.730;37.818;2023-06-01T09:31:40;20.02;82.55
75155;HTU21D;63735;44.730;37.818;2023-06-01T09:34:09;20.10;82.55
75155;HTU21D;63735;44.730;37.818;2023-06-01T09:36:37;20.22;82.25
75155;HTU21D;63735;44.730;37.818;2023-06-01T09:39:03;20.34;82.04
75155;HTU21D;63735;44.730;37.818;2023-06-01T09:41:55;20.36;81.50
75155;HTU21D;63735;44.730;37.818;2023-06-01T09:44:24;20.32;81.20
75155;HTU21D;63735;44.730;37.818;2023-06-01T09:46:52;20.40;81.42
75155;HTU21D;63735;44.730;37.818;2023-06-01T09:49:22;20.51;81.35
75155;HTU21D;63735;44.730;37.818;2023-06-01T09:51:51;20.60;81.28
75155;HTU21D;63735;44.730;37.818;2023-06-01T09:54:27;20.60;80.88
75155;HTU21D;63735;44.730;37.818;2023-06-01T09:56:54;20.60;80.93
75155;HTU21D;63735;44.730;37.818;2023-06-01T09:59:24;20.65;80.78
75155;HTU21D;63735;44.730;37.818;2023-06-01T10:01:52;20.62;80.78
75155;HTU21D;63735;44.730;37.818;2023-06-01T10:04:27;20.53;80.85
75155;HTU21D;63735;44.730;37.818;2023-06-01T10:06:57;20.45;80.98
75155;HTU21D;63735;44.730;37.818;2023-06-01T10:09:25;20.33;80.97
75155;HTU21D;63735;44.730;37.818;2023-06-01T10:11:53;20.20;81.10
75155;HTU21D;63735;44.730;37.818;2023-06-01T10:14:21;20.11;81.10
75155;HTU21D;63735;44.730;37.818;2023-06-01T10:16:49;20.03;81.27
75155;HTU21D;63735;44.730;37.818;2023-06-01T10:19:16;19.94;81.38
75155;HTU21D;63735;44.730;37.818;2023-06-01T10:21:43;19.84;81.51
75155;HTU21D;63735;44.730;37.818;2023-06-01T10:24:16;19.80;81.74
75155;HTU21D;63735;44.730;37.818;2023-06-01T10:29:17;19.79;81.99
75155;HTU21D;63735;44.730;37.818;2023-06-01T10:31:44;19.81;82.05
75155;HTU21D;63735;44.730;37.818;2023-06-01T10:34:11;19.85;82.15
75155;HTU21D;63735;44.730;37.818;2023-06-01T10:39:29;19.94;82.21
75155;HTU21D;63735;44.730;37.818;2023-06-01T10:44:47;19.82;82.33
75155;HTU21D;63735;44.730;37.818;2023-06-01T10:52:32;19.76;82.29
75155;HTU21D;63735;44.730;37.818;2023-06-01T10:55:18;19.74;82.20
75155;HTU21D;63735;44.730;37.818;2023-06-01T10:57:45;19.80;82.35
75155;HTU21D;63735;44.730;37.818;2023-06-01T11:00:18;19.88;82.18
75155;HTU21D;63735;44.730;37.818;2023-06-01T11:08:05;19.69;82.36
75155;HTU21D;63735;44.730;37.818;2023-06-01T11:13:19;19.33;83.14
75155;HTU21D;63735;44.730;37.818;2023-06-01T11:19:06;18.98;84.15
75155;HTU21D;63735;44.730;37.818;2023-06-01T11:21:36;18.92;84.40
75155;HTU21D;63735;44.730;37.818;2023-06-01T11:26:40;18.91;84.70
75155;HTU21D;63735;44.730;37.818;2023-06-01T11:29:10;18.83;84.95
75155;HTU21D;63735;44.730;37.818;2023-06-01T11:31:45;18.72;85.32
75155;HTU21D;63735;44.730;37.818;2023-06-01T11:34:12;18.69;85.51
75155;HTU21D;63735;44.730;37.818;2023-06-01T11:36:43;18.73;85.64
75155;HTU21D;63735;44.730;37.818;2023-06-01T11:39:26;18.78;85.60
75155;HTU21D;63735;44.730;37.818;2023-06-01T11:42:14;18.69;85.74
75155;HTU21D;63735;44.730;37.818;2023-06-01T11:44:57;18.68;85.94
75155;HTU21D;63735;44.730;37.818;2023-06-01T11:47:28;18.73;86.09
75155;HTU21D;63735;44.730;37.818;2023-06-01T11:49:55;18.72;86.06
75155;HTU21D;63735;44.730;37.818;2023-06-01T11:52:21;18.62;86.51
75155;HTU21D;63735;44.730;37.818;2023-06-01T11:54:48;18.57;86.78
75155;HTU21D;63735;44.730;37.818;2023-06-01T11:57:15;18.61;86.93
75155;HTU21D;63735;44.730;37.818;2023-06-01T11:59:46;18.65;86.94
75155;HTU21D;63735;44.730;37.818;2023-06-01T12:05:04;18.76;86.77
75155;HTU21D;63735;44.730;37.818;2023-06-01T12:07:44;18.85;86.51
75155;HTU21D;63735;44.730;37.818;2023-06-01T12:10:16;18.87;86.36
75155;HTU21D;63735;44.730;37.818;2023-06-01T12:12:42;18.80;86.26
75155;HTU21D;63735;44.730;37.818;2023-06-01T12:15:16;18.76;86.49
75155;HTU21D;63735;44.730;37.818;2023-06-01T12:17:53;18.80;86.70
75155;HTU21D;63735;44.730;37.818;2023-06-01T12:20:29;18.92;86.72
75155;HTU21D;63735;44.730;37.818;2023-06-01T12:22:59;19.01;86.60
75155;HTU21D;63735;44.730;37.818;2023-06-01T12:25:26;19.14;86.45
75155;HTU21D;63735;44.730;37.818;2023-06-01T12:28:06;19.30;86.39
75155;HTU21D;63735;44.730;37.818;2023-06-01T12:30:32;19.52;86.22
75155;HTU21D;63735;44.730;37.818;2023-06-01T12:32:58;19.81;86.00
75155;HTU21D;63735;44.730;37.818;2023-06-01T12:35:24;20.24;85.49
75155;HTU21D;63735;44.730;37.818;2023-06-01T12:38:06;20.46;84.79
75155;HTU21D;63735;44.730;37.818;2023-06-01T12:40:33;20.53;84.71
75155;HTU21D;63735;44.730;37.818;2023-06-01T12:42:59;20.49;84.62
75155;HTU21D;63735;44.730;37.818;2023-06-01T12:45:34;20.49;84.54
75155;HTU21D;63735;44.730;37.818;2023-06-01T12:48:02;20.39;84.20
75155;HTU21D;63735;44.730;37.818;2023-06-01T12:50:29;20.25;84.36
75155;HTU21D;63735;44.730;37.818;2023-06-01T12:52:54;20.25;84.58
75155;HTU21D;63735;44.730;37.818;2023-06-01T12:55:20;20.24;84.44
75155;HTU21D;63735;44.730;37.818;2023-06-01T12:57:54;20.12;84.42
75155;HTU21D;63735;44.730;37.818;2023-06-01T13:00:20;20.00;84.58
75155;HTU21D;63735;44.730;37.818;2023-06-01T13:02:47;19.89;84.79
75155;HTU21D;63735;44.730;37.818;2023-06-01T13:05:16;19.84;84.96
75155;HTU21D;63735;44.730;37.818;2023-06-01T13:07:46;19.81;85.00
75155;HTU21D;63735;44.730;37.818;2023-06-01T13:10:12;19.80;85.06
75155;HTU21D;63735;44.730;37.818;2023-06-01T13:12:39;19.88;85.06
75155;HTU21D;63735;44.730;37.818;2023-06-01T13:15:08;19.92;84.93
75155;HTU21D;63735;44.730;37.818;2023-06-01T13:17:34;19.96;84.93
75155;HTU21D;63735;44.730;37.818;2023-06-01T13:20:00;19.94;84.83
75155;HTU21D;63735;44.730;37.818;2023-06-01T13:22:26;19.89;85.01
75155;HTU21D;63735;44.730;37.818;2023-06-01T13:24:51;19.94;85.01
75155;HTU21D;63735;44.730;37.818;2023-06-01T13:27:17;19.97;84.98
75155;HTU21D;63735;44.730;37.818;2023-06-01T13:29:43;20.05;85.10
75155;HTU21D;63735;44.730;37.818;2023-06-01T13:32:09;20.14;84.94
75155;HTU21D;63735;44.730;37.818;2023-06-01T13:34:35;20.14;84.87
75155;HTU21D;63735;44.730;37.818;2023-06-01T13:37:01;20.03;84.90
75155;HTU21D;63735;44.730;37.818;2023-06-01T13:39:27;19.99;84.94
75155;HTU21D;63735;44.730;37.818;2023-06-01T13:41:54;19.92;84.93
75155;HTU21D;63735;44.730;37.818;2023-06-01T13:44:19;19.88;84.93
75155;HTU21D;63735;44.730;37.818;2023-06-01T13:46:45;19.84;84.85
75155;HTU21D;63735;44.730;37.818;2023-06-01T13:49:11;19.81;84.97
75155;HTU21D;63735;44.730;37.818;2023-06-01T13:51:37;19.72;84.95
75155;HTU21D;63735;44.730;37.818;2023-06-01T13:54:04;19.60;85.24
75155;HTU21D;63735;44.730;37.818;2023-06-01T13:56:30;19.51;85.48
75155;HTU21D;63735;44.730;37.818;2023-06-01T13:58:56;19.41;85.66
75155;HTU21D;63735;44.730;37.818;2023-06-01T14:01:22;19.33;85.84
75155;HTU21D;63735;44.730;37.818;2023-06-01T14:03:49;19.31;85.96
75155;HTU21D;63735;44.730;37.818;2023-06-01T14:06:15;19.29;85.96
75155;HTU21D;63735;44.730;37.818;2023-06-01T14:08:41;19.24;86.02
75155;HTU21D;63735;44.730;37.818;2023-06-01T14:11:07;19.18;86.23
75155;HTU21D;63735;44.730;37.818;2023-06-01T14:13:33;19.14;86.33
75155;HTU21D;63735;44.730;37.818;2023-06-01T14:16:00;19.11;86.41
75155;HTU21D;63735;44.730;37.818;2023-06-01T14:18:25;19.12;86.45
75155;HTU21D;63735;44.730;37.818;2023-06-01T14:20:52;19.08;86.54
75155;HTU21D;63735;44.730;37.818;2023-06-01T14:23:17;19.08;86.56
75155;HTU21D;63735;44.730;37.818;2023-06-01T14:25:43;19.09;86.64
75155;HTU21D;63735;44.730;37.818;2023-06-01T14:28:10;19.07;86.74
75155;HTU21D;63735;44.730;37.818;2023-06-01T14:30:36;19.07;86.74
75155;HTU21D;63735;44.730;37.818;2023-06-01T14:33:02;19.10;86.69
75155;HTU21D;63735;44.730;37.818;2023-06-01T14:35:28;19.14;86.59
75155;HTU21D;63735;44.730;37.818;2023-06-01T14:37:54;19.15;86.48
75155;HTU21D;63735;44.730;37.818;2023-06-01T14:40:21;19.14;86.45
75155;HTU21D;63735;44.730;37.818;2023-06-01T14:42:47;19.11;86.50
75155;HTU21D;63735;44.730;37.818;2023-06-01T14:45:13;19.10;86.47
75155;HTU21D;63735;44.730;37.818;2023-06-01T14:47:39;19.08;86.55
75155;HTU21D;63735;44.730;37.818;2023-06-01T14:50:07;19.05;86.61
75155;HTU21D;63735;44.730;37.818;2023-06-01T14:52:33;19.02;86.61
75155;HTU21D;63735;44.730;37.818;2023-06-01T14:54:59;18.99;86.71
75155;HTU21D;63735;44.730;37.818;2023-06-01T14:57:25;18.96;86.79
75155;HTU21D;63735;44.730;37.818;2023-06-01T14:59:51;18.92;86.88
75155;HTU21D;63735;44.730;37.818;2023-06-01T15:02:17;18.92;86.93
75155;HTU21D;63735;44.730;37.818;2023-06-01T15:04:43;18.91;86.93
75155;HTU21D;63735;44.730;37.818;2023-06-01T15:07:10;18.89;86.90
75155;HTU21D;63735;44.730;37.818;2023-06-01T15:09:36;18.87;86.87
75155;HTU21D;63735;44.730;37.818;2023-06-01T15:12:02;18.88;86.90
75155;HTU21D;63735;44.730;37.818;2023-06-01T15:14:28;18.91;86.92
75155;HTU21D;63735;44.730;37.818;2023-06-01T15:16:54;18.95;86.87
75155;HTU21D;63735;44.730;37.818;2023-06-01T15:19:20;18.98;86.90
75155;HTU21D;63735;44.730;37.818;2023-06-01T15:21:46;19.01;86.86
75155;HTU21D;63735;44.730;37.818;2023-06-01T15:24:12;19.01;86.88
75155;HTU21D;63735;44.730;37.818;2023-06-01T15:26:38;19.03;86.90
75155;HTU21D;63735;44.730;37.818;2023-06-01T15:29:03;19.01;86.95
75155;HTU21D;63735;44.730;37.818;2023-06-01T15:31:29;19.02;87.02
75155;HTU21D;63735;44.730;37.818;2023-06-01T15:33:55;19.02;87.09
75155;HTU21D;63735;44.730;37.818;2023-06-01T15:36:21;19.03;87.13
75155;HTU21D;63735;44.730;37.818;2023-06-01T15:38:47;19.02;87.22
75155;HTU21D;63735;44.730;37.818;2023-06-01T15:41:13;19.06;87.22
75155;HTU21D;63735;44.730;37.818;2023-06-01T15:43:39;19.05;87.24
75155;HTU21D;63735;44.730;37.818;2023-06-01T15:46:05;19.00;87.32
75155;HTU21D;63735;44.730;37.818;2023-06-01T15:48:31;18.97;87.41
75155;HTU21D;63735;44.730;37.818;2023-06-01T15:50:57;18.94;87.53